sensor_id;sensor_type;location;lat;lon;timestamp;P1;durP1;ratioP1;P2;durP2;ratioP2
12163;SDS011;6145;50.192;10.064;2023-07-30T00:02:21;3.27;;;2.97;;
12163;SDS011;6145;50.192;10.064;2023-07-30T00:04:48;4.53;;;2.40;;
12163;SDS011;6145;50.192;10.064;2023-07-30T00:07:15;5.70;;;2.97;;
12163;SDS011;6145;50.192;10.064;2023-07-30T00:09:42;2.97;;;2.77;;
12163;SDS011;6145;50.192;10.064;2023-07-30T00:12:09;2.93;;;2.53;;
12163;SDS011;6145;50.192;10.064;2023-07-30T00:14:36;3.53;;;2.90;;
12163;SDS011;6145;50.192;10.064;2023-07-30T00:17:03;3.30;;;3.00;;
12163;SDS011;6145;50.192;10.064;2023-07-30T00:19:31;3.17;;;2.47;;
12163;SDS011;6145;50.192;10.064;2023-07-30T00:21:59;2.60;;;2.40;;
12163;SDS011;6145;50.192;10.064;2023-07-30T00:24:25;2.90;;;2.53;;
12163;SDS011;6145;50.192;10.064;2023-07-30T00:26:52;3.50;;;3.20;;
12163;SDS011;6145;50.192;10.064;2023-07-30T00:29:19;4.13;;;2.47;;
12163;SDS011;6145;50.192;10.064;2023-07-30T00:31:46;6.10;;;3.20;;
12163;SDS011;6145;50.192;10.064;2023-07-30T00:34:27;2.50;;;2.30;;
12163;SDS011;6145;50.192;10.064;2023-07-30T00:36:55;3.10;;;2.77;;
12163;SDS011;6145;50.192;10.064;2023-07-30T00:39:22;3.27;;;3.07;;
12163;SDS011;6145;50.192;10.064;2023-07-30T00:41:49;3.93;;;3.40;;
12163;SDS011;6145;50.192;10.064;2023-07-30T00:44:17;4.43;;;3.33;;
12163;SDS011;6145;50.192;10.064;2023-07-30T00:46:44;3.20;;;2.90;;
12163;SDS011;6145;50.192;10.064;2023-07-30T00:49:11;4.83;;;2.47;;
12163;SDS011;6145;50.192;10.064;2023-07-30T00:51:38;3.63;;;3.33;;
12163;SDS011;6145;50.192;10.064;2023-07-30T00:54:08;3.07;;;2.77;;
12163;SDS011;6145;50.192;10.064;2023-07-30T00:56:35;3.53;;;2.77;;
12163;SDS011;6145;50.192;10.064;2023-07-30T00:59:02;3.63;;;3.20;;
12163;SDS011;6145;50.192;10.064;2023-07-30T01:01:29;3.93;;;3.07;;
12163;SDS011;6145;50.192;10.064;2023-07-30T01:04:01;3.13;;;2.50;;
12163;SDS011;6145;50.192;10.064;2023-07-30T01:06:29;5.63;;;2.90;;
12163;SDS011;6145;50.192;10.064;2023-07-30T01:08:56;5.37;;;3.20;;
12163;SDS011;6145;50.192;10.064;2023-07-30T01:11:24;3.67;;;3.37;;
12163;SDS011;6145;50.192;10.064;2023-07-30T01:16:29;2.50;;;2.30;;
12163;SDS011;6145;50.192;10.064;2023-07-30T01:18:56;3.30;;;3.00;;
12163;SDS011;6145;50.192;10.064;2023-07-30T01:21:30;2.60;;;2.37;;
12163;SDS011;6145;50.192;10.064;2023-07-30T01:23:57;3.27;;;2.77;;
12163;SDS011;6145;50.192;10.064;2023-07-30T01:26:24;2.77;;;2.20;;
12163;SDS011;6145;50.192;10.064;2023-07-30T01:28:56;5.40;;;2.93;;
12163;SDS011;6145;50.192;10.064;2023-07-30T01:31:26;4.00;;;2.23;;
12163;SDS011;6145;50.192;10.064;2023-07-30T01:33:55;3.37;;;2.83;;
12163;SDS011;6145;50.192;10.064;2023-07-30T01:36:23;4.03;;;3.20;;
12163;SDS011;6145;50.192;10.064;2023-07-30T01:38:51;6.77;;;2.90;;
12163;SDS011;6145;50.192;10.064;2023-07-30T01:41:19;2.70;;;2.50;;
12163;SDS011;6145;50.192;10.064;2023-07-30T01:43:46;4.83;;;2.80;;
12163;SDS011;6145;50.192;10.064;2023-07-30T01:46:13;2.67;;;2.47;;
12163;SDS011;6145;50.192;10.064;2023-07-30T01:48:40;2.53;;;2.33;;
12163;SDS011;6145;50.192;10.064;2023-07-30T01:51:07;4.07;;;2.70;;
12163;SDS011;6145;50.192;10.064;2023-07-30T01:53:33;3.90;;;3.00;;
12163;SDS011;6145;50.192;10.064;2023-07-30T01:56:01;4.87;;;3.20;;
12163;SDS011;6145;50.192;10.064;2023-07-30T01:58:28;5.47;;;3.20;;
12163;SDS011;6145;50.192;10.064;2023-07-30T02:00:55;3.23;;;3.00;;
12163;SDS011;6145;50.192;10.064;2023-07-30T02:03:22;3.03;;;2.47;;
12163;SDS011;6145;50.192;10.064;2023-07-30T02:05:49;3.30;;;2.43;;
12163;SDS011;6145;50.192;10.064;2023-07-30T02:08:18;2.40;;;2.20;;
12163;SDS011;6145;50.192;10.064;2023-07-30T02:10:54;5.20;;;3.17;;
12163;SDS011;6145;50.192;10.064;2023-07-30T02:13:23;3.20;;;2.53;;
12163;SDS011;6145;50.192;10.064;2023-07-30T02:15:50;3.87;;;3.57;;
12163;SDS011;6145;50.192;10.064;2023-07-30T02:18:18;6.97;;;3.23;;
12163;SDS011;6145;50.192;10.064;2023-07-30T02:20:45;2.93;;;2.50;;
12163;SDS011;6145;50.192;10.064;2023-07-30T02:23:13;3.87;;;2.20;;
12163;SDS011;6145;50.192;10.064;2023-07-30T02:25:41;4.53;;;2.60;;
12163;SDS011;6145;50.192;10.064;2023-07-30T02:28:08;3.43;;;3.07;;
12163;SDS011;6145;50.192;10.064;2023-07-30T02:30:37;3.10;;;2.80;;
12163;SDS011;6145;50.192;10.064;2023-07-30T02:33:04;4.33;;;3.00;;
12163;SDS011;6145;50.192;10.064;2023-07-30T02:35:31;2.47;;;2.27;;
12163;SDS011;6145;50.192;10.064;2023-07-30T02:37:58;3.67;;;2.30;;
12163;SDS011;6145;50.192;10.064;2023-07-30T02:40:24;7.00;;;2.63;;
12163;SDS011;6145;50.192;10.064;2023-07-30T02:42:51;2.60;;;2.40;;
12163;SDS011;6145;50.192;10.064;2023-07-30T02:45:18;6.13;;;2.57;;
12163;SDS011;6145;50.192;10.064;2023-07-30T02:50:32;3.37;;;2.20;;
12163;SDS011;6145;50.192;10.064;2023-07-30T02:52:59;2.40;;;2.20;;
12163;SDS011;6145;50.192;10.064;2023-07-30T02:55:26;4.30;;;2.30;;
12163;SDS011;6145;50.192;10.064;2023-07-30T02:57:53;2.67;;;2.13;;
12163;SDS011;6145;50.192;10.064;2023-07-30T03:00:19;2.47;;;2.13;;
12163;SDS011;6145;50.192;10.064;2023-07-30T03:02:46;2.23;;;2.03;;
12163;SDS011;6145;50.192;10.064;2023-07-30T03:05:14;2.90;;;2.13;;
12163;SDS011;6145;50.192;10.064;2023-07-30T03:07:44;2.17;;;1.87;;
12163;SDS011;6145;50.192;10.064;2023-07-30T03:10:10;3.00;;;2.30;;
12163;SDS011;6145;50.192;10.064;2023-07-30T03:12:37;1.90;;;1.80;;
12163;SDS011;6145;50.192;10.064;2023-07-30T03:15:04;2.80;;;2.40;;
12163;SDS011;6145;50.192;10.064;2023-07-30T03:17:32;5.07;;;2.50;;
12163;SDS011;6145;50.192;10.064;2023-07-30T03:19:58;5.30;;;2.40;;
12163;SDS011;6145;50.192;10.064;2023-07-30T03:22:27;4.90;;;2.23;;
12163;SDS011;6145;50.192;10.064;2023-07-30T03:24:54;3.23;;;2.00;;
12163;SDS011;6145;50.192;10.064;2023-07-30T03:27:21;3.03;;;1.87;;
12163;SDS011;6145;50.192;10.064;2023-07-30T03:29:47;2.20;;;2.00;;
12163;SDS011;6145;50.192;10.064;2023-07-30T03:32:14;2.73;;;2.53;;
12163;SDS011;6145;50.192;10.064;2023-07-30T03:34:41;2.40;;;2.20;;
12163;SDS011;6145;50.192;10.064;2023-07-30T03:37:08;2.60;;;2.27;;
12163;SDS011;6145;50.192;10.064;2023-07-30T03:39:36;3.17;;;2.50;;
12163;SDS011;6145;50.192;10.064;2023-07-30T03:42:03;3.10;;;2.37;;
12163;SDS011;6145;50.192;10.064;2023-07-30T03:44:30;2.43;;;1.90;;
12163;SDS011;6145;50.192;10.064;2023-07-30T03:46:57;5.03;;;2.83;;
12163;SDS011;6145;50.192;10.064;2023-07-30T03:49:24;2.37;;;2.17;;
12163;SDS011;6145;50.192;10.064;2023-07-30T03:51:51;6.30;;;2.63;;
12163;SDS011;6145;50.192;10.064;2023-07-30T03:54:18;3.73;;;2.73;;
12163;SDS011;6145;50.192;10.064;2023-07-30T03:56:46;2.73;;;2.53;;
12163;SDS011;6145;50.192;10.064;2023-07-30T03:59:13;5.90;;;3.50;;
12163;SDS011;6145;50.192;10.064;2023-07-30T04:01:40;3.03;;;2.37;;
12163;SDS011;6145;50.192;10.064;2023-07-30T04:04:06;4.90;;;3.17;;
12163;SDS011;6145;50.192;10.064;2023-07-30T04:06:33;3.70;;;3.00;;
12163;SDS011;6145;50.192;10.064;2023-07-30T04:09:01;4.50;;;2.63;;
12163;SDS011;6145;50.192;10.064;2023-07-30T04:11:28;4.50;;;3.30;;
12163;SDS011;6145;50.192;10.064;2023-07-30T04:13:56;5.67;;;3.50;;
12163;SDS011;6145;50.192;10.064;2023-07-30T04:16:23;3.60;;;3.30;;
12163;SDS011;6145;50.192;10.064;2023-07-30T04:18:50;3.90;;;3.43;;
12163;SDS011;6145;50.192;10.064;2023-07-30T04:21:17;5.30;;;3.63;;
12163;SDS011;6145;50.192;10.064;2023-07-30T04:23:44;4.23;;;3.00;;
12163;SDS011;6145;50.192;10.064;2023-07-30T04:26:11;4.67;;;3.13;;
12163;SDS011;6145;50.192;10.064;2023-07-30T04:28:37;3.83;;;3.53;;
12163;SDS011;6145;50.192;10.064;2023-07-30T04:31:06;4.80;;;3.67;;
12163;SDS011;6145;50.192;10.064;2023-07-30T04:33:34;4.27;;;3.50;;
12163;SDS011;6145;50.192;10.064;2023-07-30T04:36:01;5.20;;;3.67;;
12163;SDS011;6145;50.192;10.064;2023-07-30T04:38:28;6.80;;;5.33;;
12163;SDS011;6145;50.192;10.064;2023-07-30T04:40:57;5.80;;;4.20;;
12163;SDS011;6145;50.192;10.064;2023-07-30T04:43:24;4.87;;;4.40;;
12163;SDS011;6145;50.192;10.064;2023-07-30T04:45:51;6.20;;;4.90;;
12163;SDS011;6145;50.192;10.064;2023-07-30T04:48:19;4.73;;;3.67;;
12163;SDS011;6145;50.192;10.064;2023-07-30T04:50:51;3.10;;;2.67;;
12163;SDS011;6145;50.192;10.064;2023-07-30T04:53:18;4.50;;;3.93;;
12163;SDS011;6145;50.192;10.064;2023-07-30T04:55:45;4.67;;;4.27;;
12163;SDS011;6145;50.192;10.064;2023-07-30T04:58:12;4.77;;;4.37;;
12163;SDS011;6145;50.192;10.064;2023-07-30T05:00:49;3.17;;;2.87;;
12163;SDS011;6145;50.192;10.064;2023-07-30T05:03:17;4.33;;;3.30;;
12163;SDS011;6145;50.192;10.064;2023-07-30T06:50:03;3.25;;;2.53;;
12163;SDS011;6145;50.192;10.064;2023-07-30T06:52:33;3.10;;;2.40;;
12163;SDS011;6145;50.192;10.064;2023-07-30T06:55:00;2.97;;;2.30;;
12163;SDS011;6145;50.192;10.064;2023-07-30T06:57:28;2.75;;;2.55;;
12163;SDS011;6145;50.192;10.064;2023-07-30T06:59:55;3.45;;;2.60;;
12163;SDS011;6145;50.192;10.064;2023-07-30T07:02:23;3.00;;;2.70;;
12163;SDS011;6145;50.192;10.064;2023-07-30T07:04:49;2.97;;;2.78;;
12163;SDS011;6145;50.192;10.064;2023-07-30T07:07:18;2.88;;;2.67;;
12163;SDS011;6145;50.192;10.064;2023-07-30T07:09:44;2.92;;;2.67;;
12163;SDS011;6145;50.192;10.064;2023-07-30T07:12:11;2.83;;;2.55;;
12163;SDS011;6145;50.192;10.064;2023-07-30T07:14:38;3.25;;;2.60;;
12163;SDS011;6145;50.192;10.064;2023-07-30T07:17:06;3.50;;;2.80;;
12163;SDS011;6145;50.192;10.064;2023-07-30T07:19:32;3.38;;;2.30;;
12163;SDS011;6145;50.192;10.064;2023-07-30T07:22:01;2.85;;;2.25;;
12163;SDS011;6145;50.192;10.064;2023-07-30T07:24:30;2.80;;;2.60;;
12163;SDS011;6145;50.192;10.064;2023-07-30T07:26:57;3.83;;;2.80;;
12163;SDS011;6145;50.192;10.064;2023-07-30T07:29:24;4.32;;;2.15;;
12163;SDS011;6145;50.192;10.064;2023-07-30T07:31:51;2.90;;;2.60;;
12163;SDS011;6145;50.192;10.064;2023-07-30T07:34:18;4.47;;;2.60;;
12163;SDS011;6145;50.192;10.064;2023-07-30T07:36:45;2.85;;;2.65;;
12163;SDS011;6145;50.192;10.064;2023-07-30T07:39:11;2.97;;;2.40;;
12163;SDS011;6145;50.192;10.064;2023-07-30T07:41:39;4.93;;;2.30;;
12163;SDS011;6145;50.192;10.064;2023-07-30T07:44:06;2.45;;;2.25;;
12163;SDS011;6145;50.192;10.064;2023-07-30T07:46:33;3.35;;;2.40;;
12163;SDS011;6145;50.192;10.064;2023-07-30T07:49:00;2.90;;;2.40;;
12163;SDS011;6145;50.192;10.064;2023-07-30T07:51:29;3.15;;;2.38;;
12163;SDS011;6145;50.192;10.064;2023-07-30T07:53:58;2.83;;;2.20;;
12163;SDS011;6145;50.192;10.064;2023-07-30T07:56:24;2.45;;;2.22;;
12163;SDS011;6145;50.192;10.064;2023-07-30T07:58:58;2.45;;;2.25;;
12163;SDS011;6145;50.192;10.064;2023-07-30T08:01:25;2.97;;;2.38;;
12163;SDS011;6145;50.192;10.064;2023-07-30T08:03:52;2.97;;;2.65;;
12163;SDS011;6145;50.192;10.064;2023-07-30T08:06:19;4.30;;;2.33;;
12163;SDS011;6145;50.192;10.064;2023-07-30T08:08:45;2.58;;;2.20;;
12163;SDS011;6145;50.192;10.064;2023-07-30T08:11:12;2.30;;;2.10;;
12163;SDS011;6145;50.192;10.064;2023-07-30T08:13:39;2.55;;;1.85;;
12163;SDS011;6145;50.192;10.064;2023-07-30T08:16:07;2.10;;;1.98;;
12163;SDS011;6145;50.192;10.064;2023-07-30T08:18:34;2.08;;;1.95;;
12163;SDS011;6145;50.192;10.064;2023-07-30T08:21:01;3.42;;;2.00;;
12163;SDS011;6145;50.192;10.064;2023-07-30T08:23:27;4.60;;;2.35;;
12163;SDS011;6145;50.192;10.064;2023-07-30T08:25:57;3.08;;;2.08;;
12163;SDS011;6145;50.192;10.064;2023-07-30T08:28:24;3.03;;;2.22;;
12163;SDS011;6145;50.192;10.064;2023-07-30T08:30:51;2.38;;;2.17;;
12163;SDS011;6145;50.192;10.064;2023-07-30T08:33:19;4.72;;;2.50;;
12163;SDS011;6145;50.192;10.064;2023-07-30T08:35:46;2.97;;;2.08;;
12163;SDS011;6145;50.192;10.064;2023-07-30T08:38:12;2.33;;;2.13;;
12163;SDS011;6145;50.192;10.064;2023-07-30T08:40:39;3.47;;;1.95;;
12163;SDS011;6145;50.192;10.064;2023-07-30T08:43:06;2.38;;;2.13;;
12163;SDS011;6145;50.192;10.064;2023-07-30T08:45:33;2.15;;;1.83;;
12163;SDS011;6145;50.192;10.064;2023-07-30T08:48:00;2.20;;;2.05;;
12163;SDS011;6145;50.192;10.064;2023-07-30T08:50:28;2.88;;;2.10;;
12163;SDS011;6145;50.192;10.064;2023-07-30T08:52:55;3.70;;;2.20;;
12163;SDS011;6145;50.192;10.064;2023-07-30T08:55:23;2.80;;;2.30;;
12163;SDS011;6145;50.192;10.064;2023-07-30T08:57:52;2.00;;;1.80;;
12163;SDS011;6145;50.192;10.064;2023-07-30T09:00:20;2.33;;;2.13;;
12163;SDS011;6145;50.192;10.064;2023-07-30T09:02:51;2.75;;;2.05;;
12163;SDS011;6145;50.192;10.064;2023-07-30T09:05:19;3.42;;;2.38;;
12163;SDS011;6145;50.192;10.064;2023-07-30T09:07:49;3.83;;;2.22;;
12163;SDS011;6145;50.192;10.064;2023-07-30T09:10:16;2.78;;;2.20;;
12163;SDS011;6145;50.192;10.064;2023-07-30T09:12:43;2.20;;;2.00;;
12163;SDS011;6145;50.192;10.064;2023-07-30T09:15:09;2.30;;;2.10;;
12163;SDS011;6145;50.192;10.064;2023-07-30T09:17:36;2.85;;;1.88;;
12163;SDS011;6145;50.192;10.064;2023-07-30T09:20:04;2.03;;;1.88;;
12163;SDS011;6145;50.192;10.064;2023-07-30T09:22:33;2.10;;;2.00;;
12163;SDS011;6145;50.192;10.064;2023-07-30T09:25:05;1.80;;;1.70;;
12163;SDS011;6145;50.192;10.064;2023-07-30T09:27:33;2.78;;;2.00;;
12163;SDS011;6145;50.192;10.064;2023-07-30T09:30:00;2.53;;;2.00;;
12163;SDS011;6145;50.192;10.064;2023-07-30T09:32:30;1.90;;;1.70;;
12163;SDS011;6145;50.192;10.064;2023-07-30T09:35:03;1.80;;;1.70;;
12163;SDS011;6145;50.192;10.064;2023-07-30T09:37:31;3.42;;;1.73;;
12163;SDS011;6145;50.192;10.064;2023-07-30T10:53:17;2.90;;;1.90;;
12163;SDS011;6145;50.192;10.064;2023-07-30T10:55:43;2.67;;;1.90;;
12163;SDS011;6145;50.192;10.064;2023-07-30T10:58:11;2.30;;;2.10;;
12163;SDS011;6145;50.192;10.064;2023-07-30T11:00:39;2.58;;;1.83;;
12163;SDS011;6145;50.192;10.064;2023-07-30T11:03:06;3.55;;;1.95;;
12163;SDS011;6145;50.192;10.064;2023-07-30T11:05:33;2.58;;;1.70;;
12163;SDS011;6145;50.192;10.064;2023-07-30T11:08:00;2.58;;;2.35;;
12163;SDS011;6145;50.192;10.064;2023-07-30T11:10:29;2.50;;;2.30;;
12163;SDS011;6145;50.192;10.064;2023-07-30T11:12:56;2.38;;;1.70;;
12163;SDS011;6145;50.192;10.064;2023-07-30T11:15:24;2.45;;;1.83;;
12163;SDS011;6145;50.192;10.064;2023-07-30T11:17:51;2.35;;;1.90;;
12163;SDS011;6145;50.192;10.064;2023-07-30T11:20:21;1.90;;;1.80;;
12163;SDS011;6145;50.192;10.064;2023-07-30T11:22:51;1.83;;;1.73;;
12163;SDS011;6145;50.192;10.064;2023-07-30T11:25:18;2.63;;;1.90;;
12163;SDS011;6145;50.192;10.064;2023-07-30T11:27:47;2.35;;;1.90;;
12163;SDS011;6145;50.192;10.064;2023-07-30T11:30:14;2.28;;;2.00;;
12163;SDS011;6145;50.192;10.064;2023-07-30T11:32:41;1.90;;;1.80;;
12163;SDS011;6145;50.192;10.064;2023-07-30T11:35:09;2.28;;;2.08;;
12163;SDS011;6145;50.192;10.064;2023-07-30T11:37:37;3.13;;;2.28;;
12163;SDS011;6145;50.192;10.064;2023-07-30T11:40:06;5.97;;;2.88;;
12163;SDS011;6145;50.192;10.064;2023-07-30T11:42:33;5.18;;;2.40;;
12163;SDS011;6145;50.192;10.064;2023-07-30T11:47:49;2.65;;;1.98;;
12163;SDS011;6145;50.192;10.064;2023-07-30T11:50:16;3.28;;;2.20;;
12163;SDS011;6145;50.192;10.064;2023-07-30T11:52:52;3.08;;;2.03;;
12163;SDS011;6145;50.192;10.064;2023-07-30T11:55:20;2.03;;;1.85;;
12163;SDS011;6145;50.192;10.064;2023-07-30T11:57:47;2.45;;;1.73;;
12163;SDS011;6145;50.192;10.064;2023-07-30T12:00:14;2.15;;;1.95;;
12163;SDS011;6145;50.192;10.064;2023-07-30T12:02:42;1.85;;;1.75;;
12163;SDS011;6145;50.192;10.064;2023-07-30T12:05:10;1.92;;;1.83;;
12163;SDS011;6145;50.192;10.064;2023-07-30T12:07:39;1.92;;;1.80;;
12163;SDS011;6145;50.192;10.064;2023-07-30T12:10:08;1.50;;;1.40;;
12163;SDS011;6145;50.192;10.064;2023-07-30T12:12:35;1.75;;;1.20;;
12163;SDS011;6145;50.192;10.064;2023-07-30T12:15:09;1.40;;;1.30;;
12163;SDS011;6145;50.192;10.064;2023-07-30T12:17:37;1.25;;;1.13;;
12163;SDS011;6145;50.192;10.064;2023-07-30T12:20:05;1.20;;;1.15;;
12163;SDS011;6145;50.192;10.064;2023-07-30T12:22:32;1.63;;;1.30;;
12163;SDS011;6145;50.192;10.064;2023-07-30T12:25:00;1.98;;;1.33;;
12163;SDS011;6145;50.192;10.064;2023-07-30T12:27:28;1.27;;;1.05;;
12163;SDS011;6145;50.192;10.064;2023-07-30T12:29:55;1.38;;;1.00;;
12163;SDS011;6145;50.192;10.064;2023-07-30T12:32:21;1.83;;;1.27;;
12163;SDS011;6145;50.192;10.064;2023-07-30T12:34:49;1.10;;;1.05;;
12163;SDS011;6145;50.192;10.064;2023-07-30T12:37:17;1.65;;;1.10;;
12163;SDS011;6145;50.192;10.064;2023-07-30T12:39:44;1.45;;;1.35;;
12163;SDS011;6145;50.192;10.064;2023-07-30T12:42:11;1.65;;;1.38;;
12163;SDS011;6145;50.192;10.064;2023-07-30T12:44:38;2.13;;;1.30;;
12163;SDS011;6145;50.192;10.064;2023-07-30T12:47:05;1.77;;;1.05;;
12163;SDS011;6145;50.192;10.064;2023-07-30T12:49:31;1.40;;;1.20;;
12163;SDS011;6145;50.192;10.064;2023-07-30T12:51:58;1.33;;;1.23;;
12163;SDS011;6145;50.192;10.064;2023-07-30T12:54:26;2.15;;;1.40;;
12163;SDS011;6145;50.192;10.064;2023-07-30T12:56:53;1.50;;;1.40;;
12163;SDS011;6145;50.192;10.064;2023-07-30T12:59:20;2.40;;;1.40;;
12163;SDS011;6145;50.192;10.064;2023-07-30T13:01:46;2.60;;;1.58;;
12163;SDS011;6145;50.192;10.064;2023-07-30T13:04:14;2.03;;;1.30;;
12163;SDS011;6145;50.192;10.064;2023-07-30T13:06:42;2.13;;;1.63;;
12163;SDS011;6145;50.192;10.064;2023-07-30T13:09:09;1.70;;;1.60;;
12163;SDS011;6145;50.192;10.064;2023-07-30T13:11:37;1.83;;;1.67;;
12163;SDS011;6145;50.192;10.064;2023-07-30T13:14:04;1.48;;;1.38;;
12163;SDS011;6145;50.192;10.064;2023-07-30T13:16:50;1.60;;;1.50;;
12163;SDS011;6145;50.192;10.064;2023-07-30T13:22:40;2.25;;;1.38;;
12163;SDS011;6145;50.192;10.064;2023-07-30T19:40:48;2.00;;;1.70;;
12163;SDS011;6145;50.192;10.064;2023-07-30T19:43:28;6.70;;;2.20;;
12163;SDS011;6145;50.192;10.064;2023-07-30T19:45:55;3.43;;;2.10;;
12163;SDS011;6145;50.192;10.064;2023-07-30T19:48:22;3.00;;;2.10;;
12163;SDS011;6145;50.192;10.064;2023-07-30T19:50:49;5.20;;;2.50;;
12163;SDS011;6145;50.192;10.064;2023-07-30T19:53:17;3.63;;;2.00;;
12163;SDS011;6145;50.192;10.064;2023-07-30T19:55:44;2.00;;;1.80;;
12163;SDS011;6145;50.192;10.064;2023-07-30T19:58:23;5.70;;;1.83;;
12163;SDS011;6145;50.192;10.064;2023-07-30T20:00:51;3.43;;;1.93;;
12163;SDS011;6145;50.192;10.064;2023-07-30T20:03:22;4.30;;;2.10;;
12163;SDS011;6145;50.192;10.064;2023-07-30T20:05:49;3.20;;;1.90;;
12163;SDS011;6145;50.192;10.064;2023-07-30T20:08:16;3.87;;;2.17;;
12163;SDS011;6145;50.192;10.064;2023-07-30T20:10:48;2.17;;;1.70;;
12163;SDS011;6145;50.192;10.064;2023-07-30T20:13:20;4.13;;;1.80;;
12163;SDS011;6145;50.192;10.064;2023-07-30T20:16:09;4.20;;;2.07;;
12163;SDS011;6145;50.192;10.064;2023-07-30T20:18:40;3.70;;;2.00;;
12163;SDS011;6145;50.192;10.064;2023-07-30T20:21:07;4.57;;;2.33;;
12163;SDS011;6145;50.192;10.064;2023-07-30T20:23:35;3.20;;;2.13;;
12163;SDS011;6145;50.192;10.064;2023-07-30T20:26:09;2.73;;;1.97;;
12163;SDS011;6145;50.192;10.064;2023-07-30T20:28:40;3.23;;;1.80;;
12163;SDS011;6145;50.192;10.064;2023-07-30T20:31:22;2.93;;;1.90;;
12163;SDS011;6145;50.192;10.064;2023-07-30T20:33:56;4.33;;;2.07;;
12163;SDS011;6145;50.192;10.064;2023-07-30T20:36:42;2.63;;;2.07;;
12163;SDS011;6145;50.192;10.064;2023-07-30T20:39:09;2.10;;;1.73;;
12163;SDS011;6145;50.192;10.064;2023-07-30T20:41:38;2.90;;;1.80;;
12163;SDS011;6145;50.192;10.064;2023-07-30T20:44:07;2.47;;;1.80;;
12163;SDS011;6145;50.192;10.064;2023-07-30T20:46:34;2.10;;;1.73;;
12163;SDS011;6145;50.192;10.064;2023-07-30T20:49:04;3.23;;;1.90;;
12163;SDS011;6145;50.192;10.064;2023-07-30T20:51:31;3.57;;;2.23;;
12163;SDS011;6145;50.192;10.064;2023-07-30T20:54:00;4.03;;;2.03;;
12163;SDS011;6145;50.192;10.064;2023-07-30T20:56:30;3.23;;;2.07;;
12163;SDS011;6145;50.192;10.064;2023-07-30T20:58:58;3.63;;;2.10;;
12163;SDS011;6145;50.192;10.064;2023-07-30T21:01:27;4.43;;;1.97;;
12163;SDS011;6145;50.192;10.064;2023-07-30T21:03:57;3.97;;;2.20;;
12163;SDS011;6145;50.192;10.064;2023-07-30T21:06:24;3.57;;;1.80;;
12163;SDS011;6145;50.192;10.064;2023-07-30T21:08:51;4.47;;;2.00;;
12163;SDS011;6145;50.192;10.064;2023-07-30T21:11:18;3.43;;;2.07;;
12163;SDS011;6145;50.192;10.064;2023-07-30T21:13:45;2.77;;;1.67;;
12163;SDS011;6145;50.192;10.064;2023-07-30T21:16:12;2.87;;;2.03;;
12163;SDS011;6145;50.192;10.064;2023-07-30T21:18:41;3.13;;;1.93;;
12163;SDS011;6145;50.192;10.064;2023-07-30T21:21:08;4.73;;;2.33;;
12163;SDS011;6145;50.192;10.064;2023-07-30T21:23:38;5.00;;;2.20;;
12163;SDS011;6145;50.192;10.064;2023-07-30T21:26:05;3.47;;;1.70;;
12163;SDS011;6145;50.192;10.064;2023-07-30T21:28:31;2.53;;;1.87;;
12163;SDS011;6145;50.192;10.064;2023-07-30T21:31:02;3.53;;;2.27;;
12163;SDS011;6145;50.192;10.064;2023-07-30T21:33:30;3.47;;;2.30;;
12163;SDS011;6145;50.192;10.064;2023-07-30T21:35:59;3.30;;;2.20;;
12163;SDS011;6145;50.192;10.064;2023-07-30T21:38:26;3.80;;;2.30;;
12163;SDS011;6145;50.192;10.064;2023-07-30T21:40:56;4.77;;;2.00;;
12163;SDS011;6145;50.192;10.064;2023-07-30T21:43:23;4.53;;;2.00;;
12163;SDS011;6145;50.192;10.064;2023-07-30T21:45:52;4.70;;;2.10;;
12163;SDS011;6145;50.192;10.064;2023-07-30T21:48:21;3.20;;;2.07;;
12163;SDS011;6145;50.192;10.064;2023-07-30T21:50:56;7.27;;;2.20;;
12163;SDS011;6145;50.192;10.064;2023-07-30T21:53:25;4.07;;;2.00;;
12163;SDS011;6145;50.192;10.064;2023-07-30T21:55:53;4.70;;;2.87;;
12163;SDS011;6145;50.192;10.064;2023-07-30T21:58:20;4.00;;;2.80;;
12163;SDS011;6145;50.192;10.064;2023-07-30T22:00:52;6.00;;;2.27;;
12163;SDS011;6145;50.192;10.064;2023-07-30T22:03:19;4.17;;;1.90;;
12163;SDS011;6145;50.192;10.064;2023-07-30T22:05:46;4.47;;;2.10;;
12163;SDS011;6145;50.192;10.064;2023-07-30T22:08:13;3.00;;;1.83;;
12163;SDS011;6145;50.192;10.064;2023-07-30T22:10:44;4.43;;;2.40;;
12163;SDS011;6145;50.192;10.064;2023-07-30T22:13:13;4.47;;;2.03;;
12163;SDS011;6145;50.192;10.064;2023-07-30T22:15:42;4.40;;;2.30;;
12163;SDS011;6145;50.192;10.064;2023-07-30T22:18:09;5.40;;;2.40;;
12163;SDS011;6145;50.192;10.064;2023-07-30T22:20:35;5.57;;;2.20;;
12163;SDS011;6145;50.192;10.064;2023-07-30T22:23:03;6.83;;;2.63;;
12163;SDS011;6145;50.192;10.064;2023-07-30T22:25:32;3.80;;;1.90;;
12163;SDS011;6145;50.192;10.064;2023-07-30T22:28:01;3.03;;;2.20;;
12163;SDS011;6145;50.192;10.064;2023-07-30T22:30:28;3.80;;;1.90;;
12163;SDS011;6145;50.192;10.064;2023-07-30T22:32:57;2.93;;;1.90;;
12163;SDS011;6145;50.192;10.064;2023-07-30T22:35:24;3.53;;;2.13;;
12163;SDS011;6145;50.192;10.064;2023-07-30T22:37:51;7.53;;;2.50;;
12163;SDS011;6145;50.192;10.064;2023-07-30T22:40:20;4.23;;;2.30;;
12163;SDS011;6145;50.192;10.064;2023-07-30T22:42:53;3.37;;;2.37;;
12163;SDS011;6145;50.192;10.064;2023-07-30T22:45:24;4.70;;;2.00;;
12163;SDS011;6145;50.192;10.064;2023-07-30T22:47:51;4.80;;;2.40;;
12163;SDS011;6145;50.192;10.064;2023-07-30T22:50:18;3.77;;;1.80;;
12163;SDS011;6145;50.192;10.064;2023-07-30T22:52:45;4.93;;;2.00;;
12163;SDS011;6145;50.192;10.064;2023-07-30T22:55:12;3.07;;;2.10;;
12163;SDS011;6145;50.192;10.064;2023-07-30T22:57:39;2.00;;;1.77;;
12163;SDS011;6145;50.192;10.064;2023-07-30T23:00:06;3.63;;;2.00;;
12163;SDS011;6145;50.192;10.064;2023-07-30T23:02:35;3.00;;;2.20;;
12163;SDS011;6145;50.192;10.064;2023-07-30T23:05:02;3.37;;;2.00;;
12163;SDS011;6145;50.192;10.064;2023-07-30T23:07:30;3.30;;;1.90;;
12163;SDS011;6145;50.192;10.064;2023-07-30T23:09:56;4.10;;;2.13;;
12163;SDS011;6145;50.192;10.064;2023-07-30T23:12:26;2.67;;;2.13;;
12163;SDS011;6145;50.192;10.064;2023-07-30T23:14:53;3.57;;;2.43;;
12163;SDS011;6145;50.192;10.064;2023-07-30T23:17:20;4.10;;;1.73;;
12163;SDS011;6145;50.192;10.064;2023-07-30T23:19:48;6.27;;;2.10;;
12163;SDS011;6145;50.192;10.064;2023-07-30T23:22:15;4.13;;;2.23;;
12163;SDS011;6145;50.192;10.064;2023-07-30T23:24:42;2.67;;;2.00;;
12163;SDS011;6145;50.192;10.064;2023-07-30T23:27:09;4.13;;;2.13;;
12163;SDS011;6145;50.192;10.064;2023-07-30T23:29:36;2.67;;;1.60;;
12163;SDS011;6145;50.192;10.064;2023-07-30T23:32:02;4.00;;;2.37;;
12163;SDS011;6145;50.192;10.064;2023-07-30T23:34:32;3.73;;;2.60;;
12163;SDS011;6145;50.192;10.064;2023-07-30T23:37:00;3.67;;;2.20;;
12163;SDS011;6145;50.192;10.064;2023-07-30T23:39:27;7.07;;;2.57;;
12163;SDS011;6145;50.192;10.064;2023-07-30T23:41:54;2.53;;;1.90;;
12163;SDS011;6145;50.192;10.064;2023-07-30T23:44:21;3.67;;;2.37;;
12163;SDS011;6145;50.192;10.064;2023-07-30T23:46:50;5.17;;;2.40;;
12163;SDS011;6145;50.192;10.064;2023-07-30T23:49:17;3.27;;;2.10;;
12163;SDS011;6145;50.192;10.064;2023-07-30T23:51:43;2.73;;;2.00;;
12163;SDS011;6145;50.192;10.064;2023-07-30T23:54:12;3.30;;;2.07;;
12163;SDS011;6145;50.192;10.064;2023-07-30T23:56:38;3.67;;;2.37;;
12163;SDS011;6145;50.192;10.064;2023-07-30T23:59:05;3.63;;;1.90;;
